ETHC

Celle Air Base

Airport
ICAO code
ETHC
Summary
ICAO Region
EUR
ICAO Territory
Location

Celle, Lower Saxony,

Coordinates
52° 35' 23" N , 10° 1' 32" E
Metar
Observation
ETHC 031920Z 29014G26KT 9999 -SHRA BKN021 BKN029 07/03 Q1020 WHT
Station
Celle
Date/Time
2023-02-03 20:20:00
Wind direction
290°
Wind speed
14 kts
Lowest cloud amount
broken clouds
Temperature
7°C
Dew point
3°C
Humidity
75%
QNH
1020 hPa
Weather condition
light showers rain

Description

Celle Air Base is a military airbase of the German Army. The airfield is situated south-west of the city of Celle, Lower Saxony, Germany.

Runways

Designator Length Width Surface Rops
8/26 1831 45 ASP No/No

Airport map

Aerial View

SKYbrary Partners:

Safety knowledge contributed by: